createdAt,value
2023-05-17T00:02:20.741Z,70.65
2023-05-17T00:04:50.234Z,70.80
2023-05-17T00:07:16.629Z,70.41
2023-05-17T00:09:43.189Z,69.71
2023-05-17T00:12:09.581Z,69.65
2023-05-17T00:14:36.186Z,69.16
2023-05-17T00:17:09.700Z,68.53
2023-05-17T00:19:36.129Z,68.56
2023-05-17T00:22:02.596Z,68.98
2023-05-17T00:24:29.536Z,68.50
2023-05-17T00:27:03.104Z,68.66
2023-05-17T00:29:29.918Z,68.50
2023-05-17T00:31:56.348Z,68.59
2023-05-17T00:34:23.258Z,67.67
2023-05-17T00:36:49.703Z,67.81
2023-05-17T00:39:16.443Z,68.36
2023-05-17T00:41:42.838Z,66.90
2023-05-17T00:44:09.274Z,67.23
2023-05-17T00:46:36.084Z,67.79
2023-05-17T00:49:05.580Z,67.92
2023-05-17T00:51:32.255Z,67.47
2023-05-17T00:53:59.127Z,67.46
2023-05-17T00:56:25.548Z,67.49
2023-05-17T00:58:51.896Z,66.42
2023-05-17T01:01:18.719Z,67.42
2023-05-17T01:03:45.562Z,66.29
2023-05-17T01:06:12.781Z,67.37
2023-05-17T01:08:39.495Z,66.76
2023-05-17T01:11:05.879Z,67.08
2023-05-17T01:13:32.221Z,66.44
2023-05-17T01:15:58.541Z,66.69
2023-05-17T01:18:24.942Z,67.16
2023-05-17T01:20:54.431Z,65.72
2023-05-17T01:23:20.820Z,65.89
2023-05-17T01:25:47.151Z,66.29
2023-05-17T01:28:13.738Z,66.54
2023-05-17T01:30:40.127Z,65.11
2023-05-17T01:33:06.872Z,64.94
2023-05-17T01:35:33.365Z,64.14
2023-05-17T01:37:59.871Z,64.89
2023-05-17T01:40:29.713Z,64.63
2023-05-17T01:42:56.127Z,64.25
2023-05-17T01:45:22.532Z,63.95
2023-05-17T01:47:49.364Z,64.14
2023-05-17T01:50:16.115Z,64.11
2023-05-17T01:52:47.141Z,65.74
2023-05-17T01:55:13.574Z,64.93
2023-05-17T01:57:39.975Z,63.19
2023-05-17T02:00:06.488Z,64.41
2023-05-17T02:02:35.493Z,65.10
2023-05-17T02:05:03.135Z,65.74
2023-05-17T02:07:29.586Z,66.24
2023-05-17T02:09:56.153Z,65.40
2023-05-17T02:12:26.341Z,64.97
2023-05-17T02:14:52.999Z,64.98
2023-05-17T02:17:19.993Z,65.66
2023-05-17T02:19:46.578Z,66.44
2023-05-17T02:22:13.100Z,66.50
2023-05-17T02:24:42.441Z,66.65
2023-05-17T02:27:10.772Z,67.90
2023-05-17T02:29:37.169Z,67.89
2023-05-17T02:32:03.682Z,66.83
2023-05-17T02:34:30.251Z,66.35
2023-05-17T02:36:56.791Z,66.96
2023-05-17T02:39:23.394Z,66.51
2023-05-17T02:41:49.830Z,66.69
2023-05-17T02:44:16.298Z,67.15
2023-05-17T02:46:42.698Z,66.76
2023-05-17T02:49:09.055Z,66.35
2023-05-17T02:51:35.516Z,66.04
2023-05-17T02:54:01.914Z,66.80
2023-05-17T02:56:28.531Z,65.71
2023-05-17T02:58:57.220Z,66.90
2023-05-17T03:01:24.081Z,66.96
2023-05-17T03:03:50.626Z,66.06
2023-05-17T03:06:17.230Z,66.57
2023-05-17T03:08:44.450Z,66.17
2023-05-17T03:11:12.821Z,66.96
2023-05-17T03:13:39.239Z,66.72
2023-05-17T03:16:05.995Z,66.96
2023-05-17T03:18:32.591Z,66.13
2023-05-17T03:20:59.537Z,65.81
2023-05-17T03:23:26.140Z,65.67
2023-05-17T03:25:52.676Z,65.94
2023-05-17T03:28:19.113Z,66.20
2023-05-17T03:30:45.695Z,66.38
2023-05-17T03:33:12.524Z,66.59
2023-05-17T03:35:41.470Z,66.87
2023-05-17T03:38:07.953Z,65.82
2023-05-17T03:40:34.303Z,65.87
2023-05-17T03:43:00.990Z,66.18
2023-05-17T03:45:27.777Z,65.74
2023-05-17T03:47:54.547Z,66.02
2023-05-17T03:50:21.016Z,66.47
2023-05-17T03:52:47.407Z,65.17
2023-05-17T03:55:13.829Z,65.43
2023-05-17T03:57:40.585Z,66.24
2023-05-17T04:00:07.569Z,66.81
2023-05-17T04:02:34.216Z,65.99
2023-05-17T04:05:02.226Z,66.36
2023-05-17T04:07:36.073Z,66.01
2023-05-17T04:10:02.478Z,65.73
2023-05-17T04:12:31.147Z,66.16
2023-05-17T04:14:57.568Z,66.51
2023-05-17T04:17:24.216Z,66.14
2023-05-17T04:19:51.585Z,65.17
2023-05-17T04:22:19.190Z,65.70
2023-05-17T04:24:45.838Z,65.52
2023-05-17T04:27:12.378Z,65.47
2023-05-17T04:29:39.365Z,64.36
2023-05-17T04:32:06.001Z,64.77
2023-05-17T04:34:33.857Z,64.34
2023-05-17T04:37:00.606Z,64.78
2023-05-17T04:39:28.259Z,63.82
2023-05-17T04:41:58.552Z,65.31
2023-05-17T04:44:25.930Z,64.53
2023-05-17T04:46:53.366Z,64.30
2023-05-17T04:49:20.902Z,64.36
2023-05-17T04:51:49.760Z,64.47
2023-05-17T04:54:16.122Z,65.29
2023-05-17T04:56:42.496Z,64.92
2023-05-17T04:59:09.535Z,64.29
2023-05-17T05:01:36.343Z,64.41
2023-05-17T05:04:03.019Z,64.99
2023-05-17T05:06:29.503Z,64.93
2023-05-17T05:09:00.179Z,64.55
2023-05-17T05:11:26.580Z,64.96
2023-05-17T05:13:53.019Z,65.05
2023-05-17T05:16:19.621Z,66.07
2023-05-17T05:18:46.105Z,64.47
2023-05-17T05:21:12.611Z,63.94
2023-05-17T05:23:39.002Z,63.55
2023-05-17T05:26:07.816Z,63.81
2023-05-17T05:28:34.256Z,63.89
2023-05-17T05:31:01.236Z,64.09
2023-05-17T05:33:28.352Z,64.13
2023-05-17T05:35:55.607Z,63.96
2023-05-17T05:38:22.831Z,64.57
2023-05-17T05:40:49.201Z,64.96
2023-05-17T05:43:19.921Z,64.15
2023-05-17T05:45:47.180Z,64.26
2023-05-17T05:48:13.662Z,64.06
2023-05-17T05:50:40.130Z,63.38
2023-05-17T05:53:17.218Z,63.97
2023-05-17T05:55:46.628Z,63.96
2023-05-17T05:58:15.449Z,64.99
2023-05-17T06:00:44.269Z,63.47
2023-05-17T06:03:11.925Z,63.86
2023-05-17T06:05:38.727Z,63.37
2023-05-17T06:08:07.513Z,63.30
2023-05-17T06:10:33.961Z,63.15
2023-05-17T06:13:00.563Z,63.21
2023-05-17T06:15:27.354Z,62.53
2023-05-17T06:17:53.867Z,63.74
2023-05-17T06:20:20.334Z,62.51
2023-05-17T06:22:46.733Z,61.86
2023-05-17T06:25:15.655Z,62.17
2023-05-17T06:27:42.084Z,63.42
2023-05-17T06:30:08.574Z,62.64
2023-05-17T06:32:35.220Z,62.79
2023-05-17T06:35:02.940Z,61.95
2023-05-17T06:37:29.315Z,62.37
2023-05-17T06:40:04.022Z,62.15
2023-05-17T06:42:31.744Z,61.93
2023-05-17T06:44:58.238Z,62.74
2023-05-17T06:47:30.625Z,61.93
2023-05-17T06:49:57.136Z,60.97
2023-05-17T06:52:24.384Z,61.61
2023-05-17T06:54:51.149Z,61.10
2023-05-17T06:57:17.764Z,61.80
2023-05-17T06:59:46.492Z,60.76
2023-05-17T07:02:12.915Z,61.09
2023-05-17T07:04:39.813Z,61.01
2023-05-17T07:07:06.802Z,60.11
2023-05-17T07:09:33.239Z,59.57
2023-05-17T07:12:00.183Z,60.32
2023-05-17T07:14:30.282Z,60.88
2023-05-17T07:17:00.989Z,62.23
2023-05-17T07:19:27.663Z,61.59
2023-05-17T07:21:54.109Z,62.20
2023-05-17T07:24:21.099Z,61.84
2023-05-17T07:26:50.251Z,60.20
2023-05-17T07:29:19.062Z,60.96
2023-05-17T07:31:45.440Z,60.37
2023-05-17T07:34:12.242Z,60.43
2023-05-17T07:36:38.951Z,59.23
2023-05-17T07:39:05.626Z,60.74
2023-05-17T07:41:32.643Z,60.55
2023-05-17T07:43:59.035Z,61.80
2023-05-17T07:46:25.421Z,61.31
2023-05-17T07:48:54.454Z,60.74
2023-05-17T07:51:22.334Z,60.35
2023-05-17T07:53:48.765Z,59.44
2023-05-17T07:56:17.872Z,60.71
2023-05-17T07:58:44.368Z,59.42
2023-05-17T08:01:10.779Z,59.01
2023-05-17T08:03:37.150Z,58.00
2023-05-17T08:06:03.789Z,58.20
2023-05-17T08:08:30.291Z,58.22
2023-05-17T08:10:56.661Z,57.56
2023-05-17T08:13:23.074Z,57.90
2023-05-17T08:15:51.584Z,57.83
2023-05-17T08:18:20.233Z,59.15
2023-05-17T08:20:47.161Z,59.69
2023-05-17T08:23:13.541Z,59.32
2023-05-17T08:25:46.973Z,58.64
2023-05-17T08:28:15.488Z,57.39
2023-05-17T08:30:42.389Z,57.59
2023-05-17T08:33:09.936Z,56.48
2023-05-17T08:35:37.288Z,58.43
2023-05-17T08:38:03.779Z,57.53
2023-05-17T08:40:30.388Z,58.22
2023-05-17T08:42:57.148Z,57.40
2023-05-17T08:45:23.527Z,57.63
2023-05-17T08:47:50.244Z,57.02
2023-05-17T08:50:16.844Z,56.51
2023-05-17T08:52:44.287Z,55.51
2023-05-17T08:55:10.703Z,56.09
2023-05-17T08:57:37.220Z,56.29
2023-05-17T09:00:03.747Z,56.41
2023-05-17T09:02:30.282Z,55.11
2023-05-17T09:04:56.963Z,55.35
2023-05-17T09:07:23.799Z,55.54
2023-05-17T09:09:51.224Z,54.04
2023-05-17T09:12:18.258Z,54.42
2023-05-17T09:14:44.691Z,54.13
2023-05-17T09:17:11.074Z,55.73
2023-05-17T09:19:37.909Z,55.39
2023-05-17T09:22:04.450Z,54.74
2023-05-17T09:24:30.928Z,53.78
2023-05-17T09:26:57.350Z,54.70
2023-05-17T09:29:23.769Z,54.00
2023-05-17T09:31:50.191Z,54.67
2023-05-17T09:34:17.717Z,53.58
2023-05-17T09:36:46.464Z,53.69
2023-05-17T09:39:20.282Z,53.80
2023-05-17T09:41:48.390Z,53.58
2023-05-17T09:44:15.061Z,52.93
2023-05-17T09:46:41.841Z,53.36
2023-05-17T09:49:08.356Z,52.56
2023-05-17T09:51:34.956Z,52.53
2023-05-17T09:54:01.608Z,50.57
2023-05-17T09:56:28.001Z,51.18
2023-05-17T09:58:54.524Z,50.52
2023-05-17T10:01:23.236Z,52.09
2023-05-17T10:03:49.694Z,51.90
2023-05-17T10:06:27.802Z,52.24
2023-05-17T10:09:03.872Z,51.81
2023-05-17T10:11:31.547Z,52.97
2023-05-17T10:13:58.106Z,50.23
2023-05-17T10:16:24.755Z,50.98
2023-05-17T10:18:51.745Z,51.44
2023-05-17T10:21:18.571Z,50.48
2023-05-17T10:23:45.756Z,50.69
2023-05-17T10:26:12.253Z,52.38
2023-05-17T10:28:38.640Z,51.96
2023-05-17T10:31:06.645Z,50.64
2023-05-17T10:33:34.506Z,52.33
2023-05-17T10:36:03.456Z,52.33
2023-05-17T10:38:41.818Z,51.77
2023-05-17T10:41:13.457Z,51.67
2023-05-17T10:43:41.904Z,51.36
2023-05-17T10:46:08.639Z,50.62
2023-05-17T10:48:37.594Z,50.59
2023-05-17T10:51:04.102Z,51.45
2023-05-17T10:53:30.534Z,50.81
2023-05-17T10:55:57.030Z,52.61
2023-05-17T10:58:24.362Z,51.57
2023-05-17T11:00:52.035Z,51.28
2023-05-17T11:03:21.692Z,51.34
2023-05-17T11:05:48.424Z,52.31
2023-05-17T11:08:16.548Z,50.76
2023-05-17T11:10:42.910Z,49.90
2023-05-17T11:13:09.915Z,51.15
2023-05-17T11:15:36.654Z,51.13
2023-05-17T11:18:03.066Z,51.54
2023-05-17T11:20:31.433Z,50.89
2023-05-17T11:22:58.594Z,50.43
2023-05-17T11:25:27.303Z,52.35
2023-05-17T11:27:54.265Z,52.59
2023-05-17T11:30:20.924Z,53.00
2023-05-17T11:32:47.582Z,52.15
2023-05-17T11:35:14.036Z,51.09
2023-05-17T11:37:42.907Z,52.72
2023-05-17T11:40:09.608Z,50.64
2023-05-17T11:42:35.991Z,51.86
2023-05-17T11:45:04.909Z,51.88
2023-05-17T11:47:32.732Z,51.97
2023-05-17T11:49:59.491Z,52.12
2023-05-17T11:52:27.339Z,52.62
2023-05-17T11:54:54.131Z,51.86
2023-05-17T11:57:20.569Z,52.45
2023-05-17T11:59:47.441Z,52.11
2023-05-17T12:02:14.171Z,52.62
2023-05-17T12:04:41.401Z,53.15
2023-05-17T12:07:07.877Z,51.91
2023-05-17T12:09:34.690Z,52.16
2023-05-17T12:12:01.231Z,51.43
2023-05-17T12:14:29.082Z,51.51
2023-05-17T12:16:56.615Z,51.90
2023-05-17T12:19:25.408Z,53.52
2023-05-17T12:21:54.200Z,51.78
2023-05-17T12:24:20.873Z,52.16
2023-05-17T12:26:47.334Z,53.35
2023-05-17T12:29:14.253Z,53.66
2023-05-17T12:31:41.483Z,51.39
2023-05-17T12:34:08.004Z,49.48
2023-05-17T12:36:35.406Z,51.66
2023-05-17T12:39:01.771Z,50.65
2023-05-17T12:41:29.244Z,51.15
2023-05-17T12:44:06.232Z,50.13
2023-05-17T12:46:41.482Z,50.43
2023-05-17T12:49:08.126Z,49.66
2023-05-17T12:51:36.098Z,50.87
2023-05-17T12:54:02.559Z,49.05
2023-05-17T12:56:29.056Z,48.71
2023-05-17T12:58:55.569Z,49.74
2023-05-17T13:01:26.351Z,48.20
2023-05-17T13:03:54.415Z,50.01
2023-05-17T13:09:01.195Z,51.66
2023-05-17T13:11:28.137Z,51.18
2023-05-17T13:13:54.860Z,49.27
2023-05-17T13:16:21.931Z,49.30
2023-05-17T13:18:49.512Z,48.75
2023-05-17T13:21:15.984Z,48.18
2023-05-17T13:23:43.029Z,49.48
2023-05-17T13:26:09.407Z,48.90
2023-05-17T13:28:35.823Z,48.70
2023-05-17T13:31:02.288Z,49.03
2023-05-17T13:33:31.252Z,49.15
2023-05-17T13:36:00.919Z,50.64
2023-05-17T13:38:27.339Z,52.08
2023-05-17T13:40:53.887Z,50.60
2023-05-17T13:43:20.256Z,51.89
2023-05-17T13:45:46.636Z,50.68
2023-05-17T13:48:13.159Z,51.77
2023-05-17T13:50:40.704Z,52.23
2023-05-17T13:53:09.685Z,51.42
2023-05-17T13:55:37.230Z,51.16
2023-05-17T13:58:07.242Z,50.87
2023-05-17T14:00:33.919Z,50.73
2023-05-17T14:03:00.556Z,50.89
2023-05-17T14:05:27.120Z,50.86
2023-05-17T14:07:55.727Z,49.71
2023-05-17T14:10:22.665Z,49.96
2023-05-17T14:12:51.321Z,50.30
2023-05-17T14:15:18.143Z,51.38
2023-05-17T14:17:44.679Z,50.48
2023-05-17T14:20:11.386Z,50.90
2023-05-17T14:22:38.292Z,51.06
2023-05-17T14:25:11.981Z,50.17
2023-05-17T14:27:38.521Z,50.57
2023-05-17T14:30:04.962Z,50.98
2023-05-17T14:32:31.643Z,52.43
2023-05-17T14:34:58.034Z,51.84
2023-05-17T14:37:24.746Z,50.17
2023-05-17T14:40:05.366Z,50.96
2023-05-17T14:42:33.612Z,50.28
2023-05-17T14:45:00.619Z,50.51
2023-05-17T14:47:27.049Z,50.38
2023-05-17T14:49:53.755Z,49.44
2023-05-17T14:52:20.172Z,49.95
2023-05-17T14:54:48.626Z,49.68
2023-05-17T14:57:16.475Z,48.00
2023-05-17T14:59:44.990Z,47.03
2023-05-17T15:02:13.125Z,49.21
2023-05-17T15:04:42.090Z,48.84
2023-05-17T15:07:08.887Z,48.94
2023-05-17T15:09:38.468Z,50.14
2023-05-17T15:12:04.954Z,49.06
2023-05-17T15:14:37.055Z,49.49
2023-05-17T15:17:03.758Z,49.74
2023-05-17T15:19:30.556Z,49.55
2023-05-17T15:22:09.603Z,50.60
2023-05-17T15:24:36.098Z,50.67
2023-05-17T15:27:02.821Z,51.34
2023-05-17T15:29:29.205Z,51.02
2023-05-17T15:31:55.865Z,51.06
2023-05-17T15:34:22.834Z,50.23
2023-05-17T15:36:50.536Z,50.32
2023-05-17T15:39:16.934Z,49.04
2023-05-17T15:41:43.418Z,48.67
2023-05-17T15:44:10.558Z,49.52
2023-05-17T15:46:37.034Z,49.45
2023-05-17T15:49:03.729Z,50.46
2023-05-17T15:51:31.379Z,49.35
2023-05-17T15:53:58.763Z,50.11
2023-05-17T15:56:26.353Z,49.04
2023-05-17T15:58:53.026Z,50.18
2023-05-17T16:01:19.678Z,50.38
2023-05-17T16:03:46.161Z,50.96
2023-05-17T16:06:12.933Z,50.07
2023-05-17T16:08:40.887Z,50.10
2023-05-17T16:11:07.537Z,50.06
2023-05-17T16:13:34.289Z,51.78
2023-05-17T16:16:00.716Z,49.48
2023-05-17T16:18:27.806Z,48.80
2023-05-17T16:20:56.566Z,48.94
2023-05-17T16:23:23.023Z,49.72
2023-05-17T16:25:49.493Z,49.88
2023-05-17T16:28:15.926Z,49.61
2023-05-17T16:30:42.483Z,50.66
2023-05-17T16:33:12.383Z,50.26
2023-05-17T16:35:41.005Z,50.05
2023-05-17T16:40:57.254Z,50.49
2023-05-17T16:43:24.140Z,49.69
2023-05-17T16:45:52.625Z,48.90
2023-05-17T16:48:21.378Z,49.58
2023-05-17T16:50:52.372Z,49.78
2023-05-17T16:53:18.936Z,51.07
2023-05-17T16:55:45.716Z,49.42
2023-05-17T16:58:12.397Z,48.86
2023-05-17T17:00:39.266Z,48.94
2023-05-17T17:03:09.002Z,49.25
2023-05-17T17:05:38.652Z,50.04
2023-05-17T17:08:05.279Z,49.71
2023-05-17T17:10:31.916Z,49.62
2023-05-17T17:12:58.522Z,49.82
2023-05-17T17:15:27.499Z,49.92
2023-05-17T17:17:53.985Z,50.03
2023-05-17T17:20:21.412Z,50.87
2023-05-17T17:22:47.817Z,50.78
2023-05-17T17:25:15.502Z,50.89
2023-05-17T17:27:42.207Z,51.27
2023-05-17T17:30:10.224Z,51.94
2023-05-17T17:32:36.747Z,50.56
2023-05-17T17:35:05.128Z,50.69
2023-05-17T17:37:31.642Z,51.70
2023-05-17T17:39:58.181Z,51.76
2023-05-17T17:42:27.498Z,52.49
2023-05-17T17:44:54.173Z,51.52
2023-05-17T17:47:23.125Z,50.40
2023-05-17T17:49:49.729Z,51.03
2023-05-17T17:52:16.528Z,50.87
2023-05-17T17:54:45.242Z,50.54
2023-05-17T17:57:13.533Z,51.21
2023-05-17T17:59:43.344Z,50.29
2023-05-17T18:02:10.478Z,49.89
2023-05-17T18:04:37.039Z,50.40
2023-05-17T18:07:03.851Z,50.36
2023-05-17T18:09:30.373Z,50.68
2023-05-17T18:11:56.753Z,50.69
2023-05-17T18:14:23.136Z,50.79
2023-05-17T18:16:49.772Z,51.96
2023-05-17T18:19:16.258Z,50.89
2023-05-17T18:21:42.775Z,51.69
2023-05-17T18:24:09.244Z,51.21
2023-05-17T18:26:35.617Z,51.58
2023-05-17T18:29:04.514Z,51.95
2023-05-17T18:31:31.257Z,53.06
2023-05-17T18:33:57.792Z,51.87
2023-05-17T18:36:24.220Z,52.37
2023-05-17T18:38:50.681Z,53.27
2023-05-17T18:41:20.508Z,50.88
2023-05-17T18:43:47.091Z,50.95
2023-05-17T18:46:21.884Z,52.36
2023-05-17T18:48:48.368Z,51.51
2023-05-17T18:51:17.033Z,51.01
2023-05-17T18:53:43.972Z,51.47
2023-05-17T18:56:11.918Z,51.33
2023-05-17T18:58:50.893Z,51.39
2023-05-17T19:01:17.644Z,50.82
2023-05-17T19:03:44.725Z,51.00
2023-05-17T19:06:11.591Z,51.13
2023-05-17T19:08:39.077Z,51.22
2023-05-17T19:11:05.887Z,51.80
2023-05-17T19:13:32.573Z,52.51
2023-05-17T19:15:59.000Z,52.33
2023-05-17T19:18:25.741Z,52.24
2023-05-17T19:20:54.694Z,51.85
2023-05-17T19:23:21.129Z,52.67
2023-05-17T19:25:47.687Z,52.02
2023-05-17T19:28:14.347Z,53.02
2023-05-17T19:30:42.013Z,52.13
2023-05-17T19:33:12.683Z,52.99
2023-05-17T19:35:39.122Z,52.86
2023-05-17T19:38:05.555Z,53.70
2023-05-17T19:40:32.995Z,53.38
2023-05-17T19:43:02.632Z,53.14
2023-05-17T19:45:29.050Z,53.03
2023-05-17T19:47:59.480Z,53.37
2023-05-17T19:50:28.406Z,53.74
2023-05-17T19:52:55.103Z,53.06
2023-05-17T19:55:21.526Z,53.34
2023-05-17T19:57:48.062Z,54.02
2023-05-17T20:00:14.439Z,53.78
2023-05-17T20:02:41.512Z,52.92
2023-05-17T20:05:08.585Z,53.26
2023-05-17T20:07:35.312Z,53.51
2023-05-17T21:12:11.513Z,53.37
2023-05-17T21:14:38.231Z,53.80
2023-05-17T21:17:05.226Z,54.28
2023-05-17T21:19:31.653Z,54.39
2023-05-17T21:21:58.087Z,54.21
2023-05-17T21:24:24.480Z,53.81
2023-05-17T21:26:50.849Z,53.75
2023-05-17T21:29:17.546Z,54.61
2023-05-17T21:31:44.419Z,54.42
2023-05-17T21:34:10.959Z,54.52
2023-05-17T21:36:37.557Z,54.23
2023-05-17T21:39:12.136Z,54.70
2023-05-17T21:41:38.853Z,54.60
2023-05-17T21:44:05.357Z,54.38
2023-05-17T21:46:31.818Z,54.85
2023-05-17T21:48:59.358Z,55.09
2023-05-17T21:51:26.265Z,54.76
2023-05-17T21:53:52.776Z,54.85
2023-05-17T21:56:19.157Z,55.36
2023-05-17T21:58:46.814Z,55.26
2023-05-17T22:01:13.789Z,55.89
2023-05-17T22:03:40.318Z,55.46
2023-05-17T22:06:06.877Z,55.71
2023-05-17T22:08:33.303Z,56.39
2023-05-17T22:10:59.738Z,57.30
2023-05-17T22:13:26.436Z,57.53
2023-05-17T22:15:53.125Z,57.67
2023-05-17T22:18:20.142Z,57.74
2023-05-17T22:20:46.867Z,58.21
2023-05-17T22:23:13.378Z,58.14
2023-05-17T22:25:39.853Z,58.61
2023-05-17T22:28:08.730Z,58.68
2023-05-17T22:30:35.233Z,59.08
2023-05-17T22:33:02.545Z,59.72
2023-05-17T22:35:32.361Z,59.81
2023-05-17T22:37:58.932Z,59.26
2023-05-17T22:40:26.454Z,59.33
2023-05-17T22:42:53.557Z,60.21
2023-05-17T22:45:19.979Z,60.63
2023-05-17T22:47:47.594Z,60.92
2023-05-17T22:50:15.304Z,61.51
2023-05-17T22:52:42.046Z,60.94
2023-05-17T22:55:09.651Z,61.63
2023-05-17T22:57:36.357Z,61.48
2023-05-17T23:00:03.478Z,60.94
2023-05-17T23:02:30.081Z,61.49
2023-05-17T23:04:56.655Z,61.94
2023-05-17T23:07:23.438Z,62.19
2023-05-17T23:09:51.938Z,62.41
2023-05-17T23:12:18.332Z,62.00
2023-05-17T23:14:47.115Z,62.82
2023-05-17T23:17:13.607Z,62.62
2023-05-17T23:19:40.066Z,62.12
2023-05-17T23:22:06.795Z,63.32
2023-05-17T23:24:33.309Z,62.65
2023-05-17T23:26:59.819Z,62.58
2023-05-17T23:29:28.349Z,63.05
2023-05-17T23:31:54.960Z,63.38
2023-05-17T23:34:21.416Z,63.20
2023-05-17T23:36:50.476Z,63.07
2023-05-17T23:39:18.659Z,63.37
2023-05-17T23:41:45.659Z,63.32
2023-05-17T23:44:12.053Z,63.97
2023-05-17T23:46:38.743Z,64.01
2023-05-17T23:49:05.416Z,63.66
2023-05-17T23:51:32.638Z,63.55
2023-05-17T23:53:59.116Z,63.92
2023-05-17T23:56:25.996Z,64.35
2023-05-17T23:58:52.419Z,64.33
